Terminal Aerodrome Forecast
Issued by NWS Boise, ID

Home | Current Version | Previous Version | Text Only | Print | Product List | Glossary On
Versions: 1 2 3 4 5 6 7 8 9 10 11 12 13 14 15 16 17 18 19 20 21 22 23 24 25 26 27 28 29 30 31 32 33 34
000
FTUS45 KBOI 290809 AAA
TAFBOI
TAF AMD
KBOI 290809Z 2908/3006 23009KT P6SM BKN100
     FM291700 13012KT P6SM -SHRA OVC040
     FM292200 31010KT P6SM VCSH SCT050 OVC060
     FM300400 31005KT P6SM FEW060=

USA.gov is the U.S. government's official web portal to all federal, state and local government web resources and services.